Time;durP1;ratioP1;P1;durP2;ratioP2;P2;SDS_P1;SDS_P2;PMS_P1;PMS_P2;Temp;Humidity;BMP_temperature;BMP_pressure;BME280_temperature;BME280_humidity;BME280_pressure;Samples;Min_cycle;Max_cycle;Signal;HPM_P1;HPM_P2
2022/07/14 00:00:44;;;;;;;1.50;1.40;;;;;;;16.23;90.61;98983.34;1830636;78;21063;-81
2022/07/14 00:03:11;;;;;;;6.65;1.60;;;;;;;16.18;90.63;98987.20;1804815;77;21001;-79
2022/07/14 00:05:38;;;;;;;1.80;1.25;;;;;;;16.20;90.70;98980.58;1823056;77;21020;-79
2022/07/14 00:08:05;;;;;;;3.37;1.70;;;;;;;16.20;90.53;98988.61;1818693;77;21068;-84
2022/07/14 00:10:32;;;;;;;5.00;1.30;;;;;;;16.16;90.80;98990.63;1821300;78;20992;-80
2022/07/14 00:12:59;;;;;;;3.30;1.40;;;;;;;16.19;90.87;98997.70;1828013;78;21742;-81
2022/07/14 00:15:26;;;;;;;1.67;1.40;;;;;;;16.22;90.73;98995.91;1808655;77;20981;-81
2022/07/14 00:17:52;;;;;;;2.00;1.42;;;;;;;16.18;90.44;98994.72;1823861;77;21025;-81
2022/07/14 00:20:19;;;;;;;1.55;1.40;;;;;;;16.19;90.26;98995.56;1828111;77;20969;-80
2022/07/14 00:22:47;;;;;;;2.75;1.32;;;;;;;16.18;90.21;98996.05;1816608;77;21036;-80
2022/07/14 00:25:13;;;;;;;1.20;1.10;;;;;;;16.10;90.52;99001.72;1803676;77;21210;-79
2022/07/14 00:27:40;;;;;;;4.30;1.30;;;;;;;16.12;90.51;99001.78;1804954;77;21044;-78
2022/07/14 00:30:08;;;;;;;1.47;1.37;;;;;;;16.15;90.49;98999.20;1810081;78;21048;-79
2022/07/14 00:32:35;;;;;;;3.22;1.45;;;;;;;16.08;90.89;99005.95;1788343;80;21471;-81
2022/07/14 00:35:04;;;;;;;2.37;1.45;;;;;;;16.07;90.78;99001.65;1771617;80;21031;-81
2022/07/14 00:37:31;;;;;;;1.67;1.42;;;;;;;16.05;90.89;99001.55;1767392;80;21251;-79
2022/07/14 00:39:58;;;;;;;2.42;2.22;;;;;;;15.98;91.14;99003.50;1768286;80;21521;-81
2022/07/14 00:42:39;;;;;;;1.85;1.37;;;;;;;16.00;91.13;99006.77;1765909;78;21511;-81
2022/07/14 00:45:10;;;;;;;3.47;1.60;;;;;;;16.04;91.14;99003.42;1779287;78;21021;-82
2022/07/14 00:47:37;;;;;;;3.95;1.60;;;;;;;16.04;91.31;99002.61;1776058;79;21028;-82
2022/07/14 00:50:06;;;;;;;3.30;1.72;;;;;;;15.99;91.49;99009.14;1789205;78;21311;-83
2022/07/14 00:52:32;;;;;;;1.77;1.20;;;;;;;16.01;91.24;99004.38;1779030;78;21047;-82
2022/07/14 00:54:59;;;;;;;2.05;1.20;;;;;;;16.04;91.24;99014.14;1775720;78;21045;-84
2022/07/14 00:57:26;;;;;;;2.25;1.50;;;;;;;16.02;91.10;99006.03;1775317;78;21040;-80
2022/07/14 00:59:52;;;;;;;1.82;1.22;;;;;;;15.96;91.18;99013.62;1769492;78;21055;-81
2022/07/14 01:02:19;;;;;;;2.75;1.20;;;;;;;15.99;91.00;99011.29;1788205;78;21862;-81
2022/07/14 01:04:47;;;;;;;3.90;1.37;;;;;;;16.00;91.09;99012.13;1809418;77;21041;-81
2022/07/14 01:07:16;;;;;;;1.92;1.32;;;;;;;15.95;91.09;99020.81;1802320;77;21072;-83
2022/07/14 01:09:43;;;;;;;1.75;1.40;;;;;;;15.92;91.28;99019.41;1801343;77;21113;-81
2022/07/14 01:12:09;;;;;;;1.42;1.32;;;;;;;15.91;91.12;99016.94;1794263;79;20981;-81
2022/07/14 01:14:36;;;;;;;1.85;1.20;;;;;;;15.81;91.06;99013.95;1818382;77;21138;-80
2022/07/14 01:17:04;;;;;;;1.70;1.37;;;;;;;15.77;91.16;99020.27;1817767;77;20967;-79
2022/07/14 01:19:32;;;;;;;3.20;1.55;;;;;;;15.78;91.09;99017.06;1800556;77;20981;-81
2022/07/14 01:21:59;;;;;;;1.55;1.37;;;;;;;15.75;91.32;99025.02;1813022;77;21483;-81
2022/07/14 01:24:26;;;;;;;2.20;1.10;;;;;;;15.70;91.52;99024.81;1806223;79;21029;-81
2022/07/14 01:26:52;;;;;;;2.47;1.40;;;;;;;15.75;91.34;99025.55;1827856;77;21686;-84
2022/07/14 01:29:19;;;;;;;1.32;1.22;;;;;;;15.77;91.26;99029.64;1811107;77;21552;-82
2022/07/14 01:31:46;;;;;;;1.47;1.37;;;;;;;15.72;91.21;99031.61;1794613;77;21033;-82
2022/07/14 01:34:13;;;;;;;1.47;1.37;;;;;;;15.72;91.46;99030.27;1808405;77;21041;-82
2022/07/14 01:36:40;;;;;;;1.37;1.27;;;;;;;15.79;91.09;99035.59;1786635;77;21009;-83
2022/07/14 01:39:09;;;;;;;1.65;1.47;;;;;;;15.80;91.30;99027.88;1809680;77;21764;-82
2022/07/14 01:41:38;;;;;;;1.20;1.07;;;;;;;15.75;91.13;99029.03;1774653;79;21021;-79
2022/07/14 01:44:05;;;;;;;1.32;1.22;;;;;;;15.76;90.97;99029.35;1750445;79;21055;-81
2022/07/14 01:46:32;;;;;;;3.27;1.47;;;;;;;15.75;90.92;99030.38;1765398;79;21368;-80
2022/07/14 01:49:01;;;;;;;3.30;1.20;;;;;;;15.70;91.13;99028.83;1784909;80;21084;-81
2022/07/14 01:51:28;;;;;;;4.37;1.47;;;;;;;15.70;91.27;99038.20;1746896;81;21130;-79
2022/07/14 01:53:56;;;;;;;1.17;1.07;;;;;;;15.73;91.12;99037.28;1751606;81;21562;-78
2022/07/14 01:56:23;;;;;;;1.90;1.30;;;;;;;15.70;91.15;99043.56;1759053;81;21026;-78
2022/07/14 01:58:50;;;;;;;2.87;1.40;;;;;;;15.64;91.11;99053.80;1769371;79;21025;-81
2022/07/14 02:04:02;;;;;;;1.65;1.40;;;;;;;15.60;90.95;99052.61;1763756;80;21107;-77
2022/07/14 02:06:29;;;;;;;2.60;1.40;;;;;;;15.48;91.36;99053.83;1778888;79;21120;-78
2022/07/14 02:08:58;;;;;;;3.42;1.50;;;;;;;15.42;91.63;99056.04;1749184;80;21049;-80
2022/07/14 02:14:12;;;;;;;4.55;1.25;;;;;;;15.46;91.76;99066.08;1765478;79;21544;-78
2022/07/14 02:16:40;;;;;;;1.30;1.20;;;;;;;15.40;91.71;99066.14;1776784;78;21318;-78
2022/07/14 02:19:07;;;;;;;3.00;1.45;;;;;;;15.40;91.79;99068.30;1768807;79;21025;-77
2022/07/14 02:21:34;;;;;;;2.80;1.40;;;;;;;15.42;91.59;99068.89;1765983;80;21004;-77
2022/07/14 02:24:03;;;;;;;2.58;1.55;;;;;;;15.34;91.72;99071.31;1769997;78;21517;-80
2022/07/14 02:26:30;;;;;;;1.37;1.27;;;;;;;15.33;91.93;99076.88;1779519;80;21545;-79
2022/07/14 02:28:58;;;;;;;1.72;1.57;;;;;;;15.37;92.09;99072.72;1773411;79;21582;-78
2022/07/14 02:31:24;;;;;;;4.55;1.65;;;;;;;15.34;92.13;99079.86;1776264;79;21060;-80
2022/07/14 02:33:52;;;;;;;1.52;1.32;;;;;;;15.31;92.21;99080.28;1756595;80;21018;-81
2022/07/14 02:36:20;;;;;;;5.40;1.52;;;;;;;15.33;92.06;99081.70;1786002;80;21552;-81
2022/07/14 02:38:47;;;;;;;1.50;1.40;;;;;;;15.34;92.13;99079.86;1768731;78;21001;-82
2022/07/14 02:41:14;;;;;;;1.72;1.20;;;;;;;15.33;92.33;99086.23;1773461;78;21044;-77
2022/07/14 02:43:41;;;;;;;2.10;1.40;;;;;;;15.35;92.11;99086.84;1784854;80;21027;-81
2022/07/14 02:46:07;;;;;;;8.98;1.95;;;;;;;15.41;92.09;99101.22;1783246;78;21044;-81
2022/07/14 02:48:35;;;;;;;1.47;1.37;;;;;;;15.38;92.23;99090.96;1789836;78;20989;-82
2022/07/14 02:51:08;;;;;;;2.08;1.10;;;;;;;15.33;92.36;99090.25;1812461;79;21029;-81
2022/07/14 02:53:35;;;;;;;1.67;1.35;;;;;;;15.37;92.06;99096.00;1810496;77;20987;-83
2022/07/14 02:56:03;;;;;;;3.12;1.60;;;;;;;15.38;91.83;99098.99;1794751;77;21708;-82
2022/07/14 02:58:30;;;;;;;1.95;1.35;;;;;;;15.30;91.97;99092.04;1789625;77;21032;-81
2022/07/14 03:00:57;;;;;;;1.55;1.30;;;;;;;15.24;92.08;99092.38;1813063;79;21010;-80
2022/07/14 03:03:24;;;;;;;1.40;1.30;;;;;;;15.28;92.16;99098.94;1815960;79;21557;-80
2022/07/14 03:05:50;;;;;;;4.17;1.57;;;;;;;15.26;92.13;99106.85;1811550;77;21138;-81
2022/07/14 03:08:20;;;;;;;2.67;1.55;;;;;;;15.20;92.36;99105.03;1797608;77;21045;-81
2022/07/14 03:10:46;;;;;;;3.02;1.42;;;;;;;15.17;92.50;99104.14;1799627;77;21089;-81
2022/07/14 03:13:15;;;;;;;1.80;1.30;;;;;;;15.19;92.45;99118.94;1806386;77;21548;-80
2022/07/14 03:15:42;;;;;;;1.57;1.32;;;;;;;15.15;92.63;99127.09;1786866;77;21544;-81
2022/07/14 03:18:09;;;;;;;3.75;1.95;;;;;;;15.13;92.83;99122.47;1802612;77;21190;-84
2022/07/14 03:20:39;;;;;;;2.17;1.57;;;;;;;15.22;92.53;99136.41;1803178;77;21057;-81
2022/07/14 03:23:06;;;;;;;1.98;1.80;;;;;;;15.25;92.47;99137.34;1816559;77;20959;-83
2022/07/14 03:25:33;;;;;;;2.50;1.47;;;;;;;15.27;92.63;99144.62;1792413;78;21009;-84
2022/07/14 03:28:00;;;;;;;4.67;1.82;;;;;;;15.29;92.64;99150.59;1809926;79;21085;-84
2022/07/14 03:30:28;;;;;;;1.42;1.30;;;;;;;15.42;92.14;99141.16;1802773;79;21526;-84
2022/07/14 03:32:55;;;;;;;2.05;1.37;;;;;;;15.51;91.63;99146.57;1789752;79;20954;-87
2022/07/14 03:35:22;;;;;;;2.45;1.57;;;;;;;15.49;91.47;99151.32;1786949;79;21013;-86
2022/07/14 03:37:49;;;;;;;1.77;1.32;;;;;;;15.54;91.37;99158.17;1799385;77;21655;-85
2022/07/14 03:40:16;;;;;;;5.53;1.50;;;;;;;15.66;91.02;99160.17;1803204;77;21085;-85
2022/07/14 03:42:44;;;;;;;1.32;1.22;;;;;;;15.69;90.86;99161.09;1800729;78;21213;-86
2022/07/14 03:45:11;;;;;;;1.95;1.47;;;;;;;15.66;90.56;99167.67;1798194;78;21529;-83
2022/07/14 03:47:37;;;;;;;3.08;1.62;;;;;;;15.72;90.12;99169.52;1785946;78;21033;-85
2022/07/14 03:50:06;;;;;;;4.03;2.35;;;;;;;15.73;89.91;99162.33;1798395;78;21052;-79
2022/07/14 03:52:34;;;;;;;3.85;2.08;;;;;;;15.68;89.83;99163.45;1792815;78;21552;-80
2022/07/14 03:55:00;;;;;;;1.72;1.40;;;;;;;15.63;89.76;99164.63;1794072;78;21096;-82
2022/07/14 03:57:28;;;;;;;3.47;1.60;;;;;;;15.69;89.53;99158.41;1797380;79;21075;-80
2022/07/14 03:59:55;;;;;;;2.10;1.67;;;;;;;15.71;89.47;99161.69;1794943;78;21056;-73
2022/07/14 04:02:21;;;;;;;2.55;1.32;;;;;;;15.65;89.37;99158.02;1789844;78;21251;-73
2022/07/14 04:04:48;;;;;;;3.42;1.47;;;;;;;15.67;88.88;99165.84;1795494;79;21063;-72
2022/07/14 04:07:17;;;;;;;3.00;1.57;;;;;;;15.71;88.75;99170.53;1782634;78;21128;-72
2022/07/14 04:09:44;;;;;;;2.27;1.70;;;;;;;15.71;89.04;99175.08;1796141;79;21040;-72
2022/07/14 04:12:13;;;;;;;1.77;1.52;;;;;;;15.69;88.87;99175.81;1773441;79;21540;-75
2022/07/14 04:14:40;;;;;;;2.25;1.47;;;;;;;15.73;88.89;99169.02;1794308;78;21017;-73
2022/07/14 04:17:09;;;;;;;5.47;1.65;;;;;;;15.80;88.73;99168.47;1787454;78;21044;-74
2022/07/14 04:19:36;;;;;;;1.92;1.72;;;;;;;15.80;88.72;99173.83;1786533;78;21269;-72
2022/07/14 04:22:04;;;;;;;4.97;1.40;;;;;;;15.85;88.40;99182.54;1775001;79;21020;-74
2022/07/14 04:24:31;;;;;;;3.00;1.60;;;;;;;15.99;88.18;99180.06;1790466;79;20985;-74
2022/07/14 04:26:58;;;;;;;1.57;1.25;;;;;;;16.08;87.83;99190.01;1788866;79;21361;-71
2022/07/14 04:29:25;;;;;;;1.70;1.60;;;;;;;16.10;87.48;99193.28;1785533;78;21067;-72
2022/07/14 04:31:52;;;;;;;2.65;1.60;;;;;;;16.11;87.35;99193.61;1799742;79;21267;-73
2022/07/14 04:34:22;;;;;;;2.83;1.62;;;;;;;16.23;87.30;99206.59;1792528;79;21071;-73
2022/07/14 04:36:49;;;;;;;2.15;1.95;;;;;;;16.30;87.00;99202.01;1786184;78;21013;-74
2022/07/14 04:39:15;;;;;;;4.62;2.22;;;;;;;16.33;86.54;99207.97;1774591;79;21083;-74
2022/07/14 04:41:43;;;;;;;2.55;1.85;;;;;;;16.35;86.44;99202.68;1783582;77;21613;-73
2022/07/14 04:44:10;;;;;;;3.25;2.20;;;;;;;16.44;86.11;99200.56;1781824;78;21068;-74
2022/07/14 04:46:38;;;;;;;3.40;2.08;;;;;;;16.41;85.46;99196.44;1788215;78;21012;-74
2022/07/14 04:52:03;;;;;;;3.02;1.57;;;;;;;16.46;85.74;99213.22;1798622;78;20985;-73
2022/07/14 04:54:33;;;;;;;2.45;1.80;;;;;;;16.57;85.69;99220.52;1774879;78;21077;-74
2022/07/14 04:57:03;;;;;;;5.22;1.82;;;;;;;16.61;85.65;99216.89;1787082;79;21197;-75
2022/07/14 04:59:32;;;;;;;4.10;1.98;;;;;;;16.64;84.82;99215.93;1776162;79;21520;-74
2022/07/14 05:02:00;;;;;;;2.20;1.67;;;;;;;16.71;84.67;99222.59;1787680;79;21182;-75
2022/07/14 05:04:27;;;;;;;3.80;2.15;;;;;;;16.74;84.36;99228.84;1775609;79;21020;-75
2022/07/14 05:06:55;;;;;;;2.72;1.85;;;;;;;16.66;84.12;99220.55;1784347;78;21076;-75
2022/07/14 05:09:25;;;;;;;2.08;1.85;;;;;;;16.65;84.16;99233.67;1789651;78;21138;-73
2022/07/14 05:11:52;;;;;;;4.35;1.92;;;;;;;16.77;83.94;99228.94;1771464;78;21025;-74
2022/07/14 05:14:19;;;;;;;2.45;2.25;;;;;;;16.81;83.19;99235.50;1739926;79;21008;-74
2022/07/14 05:16:48;;;;;;;3.37;1.85;;;;;;;16.74;83.02;99233.39;1769638;80;21073;-73
2022/07/14 05:19:17;;;;;;;2.72;2.05;;;;;;;16.75;83.66;99239.87;1769132;81;21058;-72
2022/07/14 05:21:44;;;;;;;1.77;1.67;;;;;;;16.98;83.27;99240.62;1750369;80;21266;-73
2022/07/14 05:24:11;;;;;;;4.95;1.70;;;;;;;17.16;82.81;99235.77;1785114;80;20998;-74
2022/07/14 05:26:38;;;;;;;4.30;2.02;;;;;;;17.22;82.38;99238.09;1744334;80;21668;-72
2022/07/14 05:29:05;;;;;;;2.45;2.08;;;;;;;17.25;82.12;99237.66;1758408;79;21500;-74
2022/07/14 05:31:33;;;;;;;3.12;1.77;;;;;;;17.30;81.81;99244.49;1774406;80;21385;-79
2022/07/14 05:34:00;;;;;;;2.08;1.98;;;;;;;17.39;80.83;99247.18;1785998;80;21110;-78
2022/07/14 05:36:27;;;;;;;2.15;1.90;;;;;;;17.38;81.20;99245.53;1780771;80;21016;-79
2022/07/14 05:38:54;;;;;;;2.62;2.17;;;;;;;17.38;81.13;99248.74;1752427;80;21740;-78
2022/07/14 05:41:20;;;;;;;1.57;1.47;;;;;;;17.39;81.07;99251.20;1767430;79;20973;-78
2022/07/14 05:43:47;;;;;;;2.20;2.00;;;;;;;17.52;81.13;99246.72;1769478;79;21029;-79
2022/07/14 05:46:14;;;;;;;4.78;2.02;;;;;;;17.67;80.56;99257.39;1764214;80;21249;-79
2022/07/14 05:48:41;;;;;;;1.85;1.75;;;;;;;17.72;80.66;99248.63;1788449;80;21023;-80
2022/07/14 05:51:15;;;;;;;4.75;2.00;;;;;;;17.76;79.93;99248.48;1787619;79;21649;-80
2022/07/14 05:53:44;;;;;;;4.22;2.10;;;;;;;17.87;80.17;99254.98;1776756;80;21047;-80
2022/07/14 05:56:13;;;;;;;1.72;1.62;;;;;;;18.03;79.62;99252.17;1811890;77;21012;-79
2022/07/14 05:58:40;;;;;;;8.73;2.58;;;;;;;18.06;79.33;99255.77;1797383;77;21087;-79
2022/07/14 06:01:07;;;;;;;1.70;1.60;;;;;;;18.10;79.35;99255.59;1791055;79;21021;-81
2022/07/14 06:03:35;;;;;;;2.10;1.50;;;;;;;18.18;79.33;99251.23;1817406;78;21041;-81
2022/07/14 06:06:05;;;;;;;1.82;1.72;;;;;;;18.36;78.67;99249.52;1816045;78;21090;-80
2022/07/14 06:08:32;;;;;;;2.58;1.80;;;;;;;18.45;77.75;99257.55;1805637;78;20981;-81
2022/07/14 06:10:58;;;;;;;2.12;1.80;;;;;;;18.50;77.64;99250.92;1800210;77;21120;-81
2022/07/14 06:13:29;;;;;;;2.98;1.60;;;;;;;18.57;76.76;99256.22;1822405;77;20997;-81
2022/07/14 06:15:57;;;;;;;4.47;1.87;;;;;;;18.61;76.43;99258.20;1806030;77;21037;-82
2022/07/14 06:18:24;;;;;;;2.33;1.80;;;;;;;18.72;75.49;99255.77;1790764;79;21497;-80
2022/07/14 06:20:51;;;;;;;1.62;1.52;;;;;;;18.69;75.25;99255.69;1819624;78;21526;-81
2022/07/14 06:23:18;;;;;;;2.65;1.82;;;;;;;18.61;75.11;99252.01;1821147;76;21303;-83
2022/07/14 06:25:45;;;;;;;2.05;1.85;;;;;;;18.53;75.00;99259.89;1817966;77;21005;-84
2022/07/14 06:28:13;;;;;;;3.75;1.80;;;;;;;18.48;75.25;99258.41;1797702;78;21493;-83
2022/07/14 06:30:41;;;;;;;1.72;1.62;;;;;;;18.56;75.23;99255.41;1804416;79;21072;-78
2022/07/14 06:33:08;;;;;;;3.75;1.92;;;;;;;18.65;75.06;99255.33;1803537;77;21056;-77
2022/07/14 06:35:40;;;;;;;2.17;1.62;;;;;;;18.67;75.56;99271.25;1809852;77;21199;-77
2022/07/14 06:38:07;;;;;;;2.42;2.22;;;;;;;18.70;75.96;99256.00;1802943;77;21033;-77
2022/07/14 06:40:35;;;;;;;3.42;1.70;;;;;;;18.77;75.64;99251.83;1804897;77;20996;-78
2022/07/14 06:43:01;;;;;;;1.75;1.57;;;;;;;18.93;74.91;99257.91;1796986;78;21627;-79
2022/07/14 06:45:31;;;;;;;2.40;1.50;;;;;;;19.04;75.56;99264.32;1786665;77;21005;-78
2022/07/14 06:47:58;;;;;;;2.15;1.87;;;;;;;19.11;75.41;99265.56;1799936;79;21140;-78
2022/07/14 06:50:25;;;;;;;2.90;1.70;;;;;;;19.20;74.88;99266.31;1819038;77;21108;-78
2022/07/14 06:52:53;;;;;;;2.40;1.77;;;;;;;19.26;73.79;99264.55;1814779;78;21037;-78
2022/07/14 06:55:20;;;;;;;2.12;1.30;;;;;;;19.35;73.83;99265.80;1799858;77;20997;-78
2022/07/14 06:57:47;;;;;;;1.50;1.40;;;;;;;19.55;73.61;99270.00;1800947;77;21017;-79
2022/07/14 07:00:14;;;;;;;3.85;1.70;;;;;;;19.63;72.45;99266.38;1796727;77;21821;-78
2022/07/14 07:02:41;;;;;;;1.65;1.55;;;;;;;19.68;72.51;99254.87;1798610;79;21496;-79
2022/07/14 07:08:00;;;;;;;1.60;1.50;;;;;;;19.75;70.99;99262.87;1800748;77;21001;-81
2022/07/14 07:10:27;;;;;;;3.50;1.60;;;;;;;19.79;71.04;99266.72;1809179;78;21746;-80
2022/07/14 07:12:57;;;;;;;1.92;1.52;;;;;;;19.84;70.95;99268.98;1807769;77;22135;-81
2022/07/14 07:15:25;;;;;;;2.65;1.67;;;;;;;20.00;70.07;99275.47;1811933;77;21033;-83
2022/07/14 07:17:51;;;;;;;2.42;1.90;;;;;;;20.06;69.93;99275.58;1807885;78;21060;-81
2022/07/14 07:20:18;;;;;;;2.90;1.70;;;;;;;20.05;69.96;99273.42;1783076;79;20997;-80
2022/07/14 07:22:45;;;;;;;4.10;1.60;;;;;;;20.09;70.07;99273.73;1781552;77;20977;-80
2022/07/14 07:25:12;;;;;;;1.87;1.50;;;;;;;20.15;69.84;99278.18;1779628;78;21088;-84
2022/07/14 07:27:40;;;;;;;2.17;1.82;;;;;;;20.23;69.52;99270.50;1788775;78;21083;-83
2022/07/14 07:30:08;;;;;;;1.70;1.50;;;;;;;20.32;69.42;99275.48;1809101;77;21102;-82
2022/07/14 07:32:36;;;;;;;5.20;3.20;;;;;;;20.50;69.10;99269.87;1787449;78;20997;-84
2022/07/14 07:35:05;;;;;;;4.17;1.98;;;;;;;20.60;67.85;99264.66;1795338;79;21124;-87
2022/07/14 07:37:34;;;;;;;5.97;2.60;;;;;;;20.56;67.28;99269.43;1800458;77;21065;-86
2022/07/14 07:40:01;;;;;;;5.95;2.37;;;;;;;20.53;66.77;99259.11;1788034;79;20998;-80
2022/07/14 07:42:29;;;;;;;2.08;1.87;;;;;;;20.50;66.90;99265.02;1795803;77;21097;-81
2022/07/14 07:44:57;;;;;;;4.20;1.72;;;;;;;20.46;66.94;99257.94;1785594;79;21075;-79
2022/07/14 07:47:25;;;;;;;2.15;1.90;;;;;;;20.48;67.81;99267.95;1805038;77;21054;-81
2022/07/14 07:49:54;;;;;;;2.98;1.62;;;;;;;20.54;67.53;99258.88;1811613;77;21187;-82
2022/07/14 07:52:21;;;;;;;5.90;2.10;;;;;;;20.64;67.54;99254.75;1807857;77;21052;-81
2022/07/14 07:54:47;;;;;;;2.92;2.35;;;;;;;20.72;67.61;99261.07;1813852;77;21236;-83
2022/07/14 07:57:15;;;;;;;2.67;1.90;;;;;;;20.82;66.49;99266.61;1813742;77;21082;-84
2022/07/14 07:59:42;;;;;;;4.47;2.33;;;;;;;20.84;65.13;99272.58;1812003;77;21062;-81
2022/07/14 08:02:11;;;;;;;2.30;2.10;;;;;;;20.73;65.71;99264.88;1798574;77;21616;-82
2022/07/14 08:04:38;;;;;;;3.95;2.22;;;;;;;20.66;65.86;99264.76;1775554;78;21047;-84
2022/07/14 08:07:04;;;;;;;2.55;2.25;;;;;;;20.66;66.53;99260.17;1809606;79;21039;-80
2022/07/14 08:09:31;;;;;;;2.05;1.70;;;;;;;20.71;66.37;99266.20;1793937;78;21041;-79
2022/07/14 08:11:57;;;;;;;2.55;1.90;;;;;;;20.78;66.89;99269.52;1801173;79;21074;-80
2022/07/14 08:17:09;;;;;;;3.35;2.05;;;;;;;20.92;66.57;99268.14;1779419;78;21005;-79
2022/07/14 08:19:37;;;;;;;3.08;2.72;;;;;;;21.04;66.61;99272.09;1795099;79;21011;-78
2022/07/14 08:22:07;;;;;;;2.27;2.05;;;;;;;21.17;66.50;99269.55;1793400;79;21086;-79
2022/07/14 08:24:35;;;;;;;1.92;1.80;;;;;;;21.30;66.30;99263.78;1817194;79;21046;-82
2022/07/14 08:27:02;;;;;;;2.17;1.98;;;;;;;21.50;66.06;99269.19;1816342;79;21076;-80
2022/07/14 08:29:28;;;;;;;2.75;2.20;;;;;;;21.71;66.07;99271.61;1791516;79;21010;-80
2022/07/14 08:31:55;;;;;;;2.05;1.80;;;;;;;21.91;65.47;99272.39;1785110;79;21023;-80
2022/07/14 08:34:22;;;;;;;2.83;2.17;;;;;;;22.05;64.50;99276.31;1804529;77;21628;-81
2022/07/14 08:36:50;;;;;;;2.47;1.98;;;;;;;22.09;64.24;99267.97;1794943;79;21036;-80
2022/07/14 08:39:17;;;;;;;2.40;1.80;;;;;;;22.08;64.39;99270.41;1767993;80;21507;-83
2022/07/14 08:41:47;;;;;;;2.98;2.08;;;;;;;22.07;64.36;99285.53;1778165;79;21036;-83
2022/07/14 08:44:14;;;;;;;2.50;2.20;;;;;;;22.04;64.45;99278.75;1784645;78;21045;-81
2022/07/14 08:46:40;;;;;;;2.87;2.00;;;;;;;22.04;64.34;99282.81;1781323;79;21013;-80
2022/07/14 08:49:07;;;;;;;2.35;2.22;;;;;;;22.09;64.09;99284.20;1761837;79;21045;-83
2022/07/14 08:51:39;;;;;;;2.10;2.00;;;;;;;22.14;63.95;99274.79;1788334;78;21462;-84
2022/07/14 08:54:10;;;;;;;2.10;2.00;;;;;;;22.21;64.23;99279.17;1788312;79;21019;-81
2022/07/14 08:58:45;;;;;;;2.40;2.05;;;;;;;22.29;63.45;99282.28;1771330;79;22340;-84
2022/07/14 09:01:12;;;;;;;2.15;1.95;;;;;;;22.14;63.29;99281.55;1729976;80;21084;-80
2022/07/14 09:03:39;;;;;;;2.30;2.10;;;;;;;22.02;64.03;99286.31;1749289;80;21494;-84
2022/07/14 09:06:06;;;;;;;4.33;2.40;;;;;;;22.00;64.32;99278.98;1741970;80;21033;-84
2022/07/14 09:08:54;;;;;;;2.72;1.85;;;;;;;22.11;65.37;99282.05;1747671;80;21077;-83
2022/07/14 09:11:20;;;;;;;2.33;2.12;;;;;;;22.29;63.91;99274.16;1744325;80;20995;-83
2022/07/14 09:13:47;;;;;;;1.92;1.80;;;;;;;22.49;63.92;99280.28;1707444;81;21116;-81
2022/07/14 09:16:22;;;;;;;4.00;2.15;;;;;;;22.66;62.12;99269.87;1724803;81;21126;-78
2022/07/14 09:19:08;;;;;;;2.67;2.10;;;;;;;22.79;62.19;99276.17;1706148;81;21078;-79
2022/07/14 09:21:37;;;;;;;2.95;1.95;;;;;;;22.94;62.48;99278.98;1699840;81;21099;-81
2022/07/14 09:24:08;;;;;;;3.45;1.90;;;;;;;23.09;60.89;99279.66;1712791;81;21099;-82
2022/07/14 09:26:43;;;;;;;2.85;2.47;;;;;;;23.22;61.68;99283.81;1718629;81;21166;-83
2022/07/14 09:29:19;;;;;;;3.45;2.08;;;;;;;23.44;60.36;99284.19;1699074;83;21482;-81
2022/07/14 09:31:47;;;;;;;2.67;2.40;;;;;;;23.55;59.91;99283.96;1702037;82;21084;-82
2022/07/14 09:34:31;;;;;;;2.55;2.33;;;;;;;23.64;59.34;99284.28;1703286;82;21073;-79
2022/07/14 09:37:16;;;;;;;4.03;2.08;;;;;;;23.64;59.02;99284.28;1708503;82;21005;-82
2022/07/14 09:39:58;;;;;;;4.10;2.40;;;;;;;23.56;59.55;99284.77;1701445;83;21573;-81
2022/07/14 09:42:52;;;;;;;4.00;2.83;;;;;;;23.65;59.59;99291.32;1709841;82;21157;-77
2022/07/14 09:45:23;;;;;;;2.52;2.22;;;;;;;23.86;58.68;99290.88;1711545;82;21112;-80
2022/07/14 09:48:14;;;;;;;2.90;2.60;;;;;;;24.28;58.16;99284.98;1711629;82;21039;-81
2022/07/14 09:50:45;;;;;;;3.30;2.27;;;;;;;24.58;58.52;99291.58;1720987;83;21104;-82
2022/07/14 09:53:18;;;;;;;3.15;2.50;;;;;;;25.00;57.11;99280.40;1710054;82;21092;-79
2022/07/14 09:55:55;;;;;;;2.90;2.50;;;;;;;25.35;57.28;99281.98;1710704;83;21581;-81
2022/07/14 09:58:23;;;;;;;3.85;2.35;;;;;;;25.80;56.53;99286.39;1682671;84;21114;-78
2022/07/14 10:01:15;;;;;;;3.08;2.77;;;;;;;26.07;55.46;99277.03;1727620;82;21037;-78
2022/07/14 10:03:45;;;;;;;3.15;2.77;;;;;;;26.42;55.39;99276.52;1714409;82;21094;-77
2022/07/14 10:06:12;;;;;;;2.75;2.55;;;;;;;26.88;53.47;99283.77;1719326;82;21019;-77
2022/07/14 10:08:43;;;;;;;2.65;2.45;;;;;;;27.13;53.37;99276.44;1721845;82;21248;-76
2022/07/14 10:11:10;;;;;;;3.05;2.70;;;;;;;27.26;52.47;99277.14;1718624;82;21042;-79
2022/07/14 10:13:38;;;;;;;2.90;2.70;;;;;;;27.20;52.45;99281.56;1720839;82;20999;-78
2022/07/14 10:16:06;;;;;;;3.10;2.90;;;;;;;26.98;51.99;99282.05;1723062;82;21042;-77
2022/07/14 10:18:33;;;;;;;2.90;2.70;;;;;;;26.60;52.08;99281.31;1717667;82;21354;-78
2022/07/14 10:21:01;;;;;;;5.40;2.67;;;;;;;26.46;52.50;99283.84;1719164;82;21799;-78
2022/07/14 10:23:29;;;;;;;3.25;2.95;;;;;;;26.51;52.26;99274.81;1715947;82;21100;-77
2022/07/14 10:25:58;;;;;;;2.70;2.50;;;;;;;26.80;52.32;99277.58;1724340;82;21046;-79
2022/07/14 10:28:26;;;;;;;3.20;2.90;;;;;;;26.96;51.69;99279.60;1722383;82;21003;-79
2022/07/14 10:31:29;;;;;;;2.90;2.67;;;;;;;27.09;52.34;99283.57;1729030;82;21038;-76
2022/07/14 10:34:21;;;;;;;3.62;2.90;;;;;;;27.32;51.61;99274.38;1722388;82;21604;-79
2022/07/14 10:37:18;;;;;;;4.03;2.55;;;;;;;27.56;50.31;99279.23;1728206;82;21049;-77
2022/07/14 10:40:22;;;;;;;3.87;2.72;;;;;;;27.61;49.90;99287.37;1713548;82;21105;-80
2022/07/14 10:43:06;;;;;;;3.30;2.80;;;;;;;27.69;50.27;99282.38;1717098;82;21085;-77
2022/07/14 10:45:34;;;;;;;3.17;2.80;;;;;;;27.87;49.75;99279.40;1716357;82;21513;-80
2022/07/14 10:48:00;;;;;;;4.08;2.55;;;;;;;28.08;50.63;99275.86;1719998;82;21270;-77
2022/07/14 10:50:28;;;;;;;3.20;2.60;;;;;;;28.55;50.28;99280.88;1724703;82;21086;-76
2022/07/14 10:53:04;;;;;;;3.17;2.85;;;;;;;29.09;48.91;99283.50;1722500;82;21038;-80
2022/07/14 10:55:34;;;;;;;3.85;2.60;;;;;;;29.63;48.49;99272.06;1721663;82;21057;-76
2022/07/14 10:58:09;;;;;;;3.15;2.60;;;;;;;30.20;46.27;99280.68;1721921;82;21062;-78
2022/07/14 11:00:46;;;;;;;2.85;2.65;;;;;;;30.58;45.41;99273.50;1726889;82;21247;-77
2022/07/14 11:03:39;;;;;;;2.77;2.55;;;;;;;30.71;44.04;99284.95;1724342;80;21517;-77
2022/07/14 11:06:11;;;;;;;3.05;2.70;;;;;;;30.75;43.67;99272.77;1721502;82;21057;-77
2022/07/14 11:08:41;;;;;;;2.92;2.60;;;;;;;30.58;43.79;99272.93;1721553;82;21006;-78
2022/07/14 11:11:18;;;;;;;2.83;2.60;;;;;;;30.33;44.67;99279.05;1732512;82;22060;-76
2022/07/14 11:14:05;;;;;;;3.20;2.90;;;;;;;29.87;44.84;99274.59;1718116;82;21541;-77
2022/07/14 11:16:55;;;;;;;2.98;2.70;;;;;;;29.36;46.25;99278.63;1725886;82;21041;-76
2022/07/14 11:19:31;;;;;;;2.85;2.65;;;;;;;28.90;46.16;99289.04;1722217;82;21104;-75
2022/07/14 11:22:19;;;;;;;2.77;2.58;;;;;;;28.37;47.13;99291.51;1730973;82;21038;-76
2022/07/14 11:24:53;;;;;;;3.02;2.75;;;;;;;28.01;48.06;99293.98;1724324;82;21107;-75
2022/07/14 11:27:48;;;;;;;;;;;;;;;27.79;48.76;99295.31;1729662;82;21118;-77
2022/07/14 11:30:20;;;;;;;;;;;;;;;27.82;49.08;99297.47;1721975;82;20172;-75
2022/07/14 11:33:01;;;;;;;3.08;2.77;;;;;;;27.85;49.08;99287.34;1721085;82;20141;-74
2022/07/14 11:38:38;;;;;;;4.60;2.85;;;;;;;28.09;48.83;99285.13;1686403;83;21608;-76
2022/07/14 11:41:10;;;;;;;6.95;3.10;;;;;;;28.21;48.55;99285.48;1724136;82;21240;-75
2022/07/14 11:43:45;;;;;;;4.78;3.05;;;;;;;28.50;48.58;99286.42;1723677;82;21503;-77
2022/07/14 11:46:15;;;;;;;2.92;2.58;;;;;;;28.76;48.12;99272.62;1717576;82;21101;-77
2022/07/14 11:49:00;;;;;;;3.65;2.85;;;;;;;29.12;47.39;99280.17;1720030;82;21105;-77
2022/07/14 11:51:29;;;;;;;3.72;2.90;;;;;;;29.57;47.11;99274.09;1719799;82;21050;-78
2022/07/14 11:54:00;;;;;;;2.95;2.70;;;;;;;30.13;46.42;99268.80;1732741;82;21124;-77
2022/07/14 11:56:29;;;;;;;4.37;2.37;;;;;;;30.88;45.83;99270.51;1729118;82;21050;-77
2022/07/14 11:59:03;;;;;;;4.45;2.80;;;;;;;31.63;44.28;99263.02;1714832;82;21073;-76
2022/07/14 12:01:34;;;;;;;3.12;2.58;;;;;;;32.23;43.37;99264.22;1708866;82;21499;-76
2022/07/14 12:04:17;;;;;;;3.10;2.80;;;;;;;32.54;42.57;99255.77;1711819;82;21019;-77